createdAt,value
2023-04-05T00:00:42.128Z,1.90
2023-04-05T00:03:10.236Z,1.63
2023-04-05T00:05:37.927Z,1.83
2023-04-05T00:08:08.299Z,1.70
2023-04-05T00:10:35.776Z,1.85
2023-04-05T00:13:03.005Z,1.80
2023-04-05T00:15:32.035Z,1.75
2023-04-05T00:18:00.272Z,1.73
2023-04-05T00:20:27.530Z,1.73
2023-04-05T00:22:54.742Z,1.85
2023-04-05T00:25:22.684Z,1.60
2023-04-05T00:27:49.936Z,1.90
2023-04-05T00:30:20.950Z,1.77
2023-04-05T00:32:49.930Z,1.90
2023-04-05T00:35:17.659Z,1.83
2023-04-05T00:37:44.887Z,2.00
2023-04-05T00:40:12.303Z,1.60
2023-04-05T00:42:39.517Z,1.80
2023-04-05T00:45:07.051Z,1.70
2023-04-05T00:47:34.411Z,1.90
2023-04-05T00:50:01.740Z,1.80
2023-04-05T00:52:33.201Z,1.80
2023-04-05T00:55:03.001Z,1.88
2023-04-05T00:57:30.312Z,1.90
2023-04-05T00:59:59.848Z,1.70
2023-04-05T01:02:33.826Z,1.88
2023-04-05T01:05:05.286Z,1.80
2023-04-05T01:07:37.272Z,1.70
2023-04-05T01:10:07.569Z,1.60
2023-04-05T01:12:35.219Z,1.60
2023-04-05T01:15:02.445Z,1.77
2023-04-05T01:17:36.789Z,2.03
2023-04-05T01:20:10.846Z,1.60
2023-04-05T01:22:38.211Z,1.88
2023-04-05T01:25:11.331Z,1.87
2023-04-05T01:27:52.741Z,1.60
2023-04-05T01:30:23.012Z,1.65
2023-04-05T01:32:53.531Z,1.73
2023-04-05T01:35:25.920Z,1.88
2023-04-05T01:37:57.424Z,1.73
2023-04-05T01:40:24.842Z,1.70
2023-04-05T01:42:52.075Z,1.70
2023-04-05T01:45:19.328Z,1.55
2023-04-05T01:47:46.572Z,1.60
2023-04-05T01:50:13.814Z,1.65
2023-04-05T01:52:41.051Z,1.75
2023-04-05T01:55:08.404Z,1.80
2023-04-05T01:57:35.745Z,1.83
2023-04-05T02:00:03.021Z,1.80
2023-04-05T02:02:30.466Z,1.93
2023-04-05T02:04:57.784Z,1.70
2023-04-05T02:07:27.133Z,1.80
2023-04-05T02:09:54.315Z,1.67
2023-04-05T02:12:22.749Z,1.73
2023-04-05T02:14:51.524Z,1.77
2023-04-05T02:17:19.022Z,1.90
2023-04-05T02:19:46.972Z,1.80
2023-04-05T02:22:16.637Z,2.00
2023-04-05T02:24:43.886Z,1.85
2023-04-05T02:27:11.100Z,1.75
2023-04-05T02:29:38.335Z,1.70
2023-04-05T02:32:05.988Z,1.80
2023-04-05T02:34:33.617Z,2.00
2023-04-05T02:37:02.004Z,1.80
2023-04-05T02:39:29.932Z,1.73
2023-04-05T02:41:57.510Z,2.00
2023-04-05T02:44:24.716Z,1.70
2023-04-05T02:46:51.928Z,1.75
2023-04-05T02:49:19.193Z,1.85
2023-04-05T02:51:46.538Z,1.67
2023-04-05T02:54:13.776Z,1.80
2023-04-05T02:56:40.984Z,1.75
2023-04-05T02:59:11.068Z,1.90
2023-04-05T03:01:38.344Z,1.80
2023-04-05T03:04:05.654Z,1.77
2023-04-05T03:06:32.928Z,1.80
2023-04-05T03:09:02.145Z,1.60
2023-04-05T03:11:29.436Z,1.88
2023-04-05T03:13:56.786Z,1.83
2023-04-05T03:16:24.040Z,2.00
2023-04-05T03:18:51.319Z,1.80
2023-04-05T03:21:19.235Z,1.67
2023-04-05T03:23:50.434Z,1.90
2023-04-05T03:26:17.781Z,1.85
2023-04-05T03:28:45.323Z,1.80
2023-04-05T03:31:12.949Z,1.55
2023-04-05T03:33:40.271Z,1.70
2023-04-05T03:36:08.359Z,1.80
2023-04-05T03:38:36.125Z,1.80
2023-04-05T03:41:03.549Z,1.67
2023-04-05T03:43:30.796Z,1.85
2023-04-05T03:45:58.114Z,1.90
2023-04-05T03:48:25.609Z,1.80
2023-04-05T03:50:52.826Z,1.83
2023-04-05T03:53:20.039Z,1.60
2023-04-05T03:55:50.422Z,1.95
2023-04-05T03:58:18.042Z,1.90
2023-04-05T04:00:45.563Z,1.63
2023-04-05T04:03:13.953Z,1.80
2023-04-05T04:05:41.880Z,1.63
2023-04-05T04:10:37.078Z,2.00
2023-04-05T04:13:04.305Z,1.88
2023-04-05T04:15:31.754Z,1.58
2023-04-05T04:17:59.022Z,1.80
2023-04-05T04:20:26.305Z,1.98
2023-04-05T04:22:54.093Z,1.80
2023-04-05T04:25:22.350Z,2.20
2023-04-05T04:30:17.788Z,2.05
2023-04-05T04:32:51.874Z,1.80
2023-04-05T04:35:29.408Z,1.70
2023-04-05T04:38:00.689Z,1.70
2023-04-05T04:40:50.388Z,1.70
2023-04-05T04:43:17.694Z,2.00
2023-04-05T04:45:48.576Z,2.07
2023-04-05T04:48:16.841Z,2.10
2023-04-05T04:53:12.038Z,1.90
2023-04-05T04:55:42.501Z,1.60
2023-04-05T04:58:11.708Z,1.67
2023-04-05T05:00:40.289Z,1.88
2023-04-05T05:03:08.555Z,2.00
2023-04-05T05:08:02.954Z,2.20
2023-04-05T05:10:30.158Z,4.20
2023-04-05T05:12:57.423Z,2.72
2023-04-05T05:15:24.702Z,2.13
2023-04-05T05:17:58.423Z,2.20
2023-04-05T05:20:28.685Z,2.55
2023-04-05T05:22:56.459Z,2.65
2023-04-05T05:25:23.689Z,2.80
2023-04-05T05:27:51.367Z,2.90
2023-04-05T05:30:19.219Z,2.70
2023-04-05T05:32:46.555Z,2.95
2023-04-05T05:35:13.837Z,2.87
2023-04-05T05:37:41.294Z,2.92
2023-04-05T05:40:09.947Z,2.72
2023-04-05T05:42:39.472Z,2.38
2023-04-05T05:45:07.087Z,2.55
2023-04-05T05:47:34.384Z,2.13
2023-04-05T05:50:01.858Z,2.35
2023-04-05T05:52:29.079Z,2.50
2023-04-05T05:54:56.302Z,2.63
2023-04-05T05:57:23.546Z,2.58
2023-04-05T05:59:51.045Z,2.72
2023-04-05T06:02:18.269Z,2.50
2023-04-05T06:04:45.583Z,2.38
2023-04-05T06:07:12.827Z,2.60
2023-04-05T06:09:40.070Z,2.40
2023-04-05T06:12:07.457Z,2.22
2023-04-05T06:14:34.686Z,2.50
2023-04-05T06:17:01.904Z,2.35
2023-04-05T06:19:29.171Z,2.23
2023-04-05T06:21:56.436Z,2.08
2023-04-05T06:24:23.680Z,2.30
2023-04-05T06:26:52.086Z,2.20
2023-04-05T06:29:19.297Z,2.20
2023-04-05T06:31:48.366Z,2.10
2023-04-05T06:34:15.731Z,2.38
2023-04-05T06:36:43.008Z,2.20
2023-04-05T06:39:10.278Z,2.20
2023-04-05T06:41:37.521Z,1.90
2023-04-05T06:44:04.871Z,2.43
2023-04-05T06:46:32.368Z,2.10
2023-04-05T06:49:03.025Z,2.42
2023-04-05T06:51:31.399Z,2.58
2023-04-05T06:53:58.836Z,2.20
2023-04-05T06:56:26.182Z,2.22
2023-04-05T06:58:54.131Z,2.40
2023-04-05T07:01:21.354Z,2.10
2023-04-05T07:03:48.598Z,2.10
2023-04-05T07:06:15.847Z,2.10
2023-04-05T07:08:43.049Z,2.27
2023-04-05T07:11:10.575Z,2.35
2023-04-05T07:13:37.793Z,2.10
2023-04-05T07:16:05.140Z,2.10
2023-04-05T07:18:32.460Z,2.40
2023-04-05T07:21:00.363Z,2.50
2023-04-05T07:25:55.778Z,1.80
2023-04-05T07:28:23.059Z,2.28
2023-04-05T07:30:50.426Z,2.38
2023-04-05T07:33:17.722Z,2.35
2023-04-05T07:35:45.026Z,2.43
2023-04-05T07:38:12.412Z,2.37
2023-04-05T07:40:39.777Z,2.40
2023-04-05T07:43:08.233Z,2.30
2023-04-05T07:45:35.514Z,2.47
2023-04-05T07:48:02.738Z,2.00
2023-04-05T07:50:29.956Z,2.00
2023-04-05T07:52:57.195Z,1.98
2023-04-05T07:55:24.432Z,2.00
2023-04-05T07:57:51.736Z,2.10
2023-04-05T08:00:19.078Z,2.00
2023-04-05T08:02:46.453Z,1.92
2023-04-05T08:05:13.758Z,2.17
2023-04-05T08:07:41.609Z,2.00
2023-04-05T08:10:08.942Z,2.10
2023-04-05T08:12:38.346Z,2.08
2023-04-05T08:15:06.476Z,2.20
2023-04-05T08:17:33.746Z,2.40
2023-04-05T08:20:04.071Z,2.25
2023-04-05T08:22:31.305Z,2.10
2023-04-05T08:24:58.622Z,2.00
2023-04-05T08:27:26.030Z,2.00
2023-04-05T08:29:53.279Z,1.88
2023-04-05T08:32:20.641Z,2.00
2023-04-05T08:34:47.837Z,1.95
2023-04-05T08:37:15.075Z,2.10
2023-04-05T08:39:42.286Z,2.00
2023-04-05T08:42:12.634Z,2.13
2023-04-05T08:44:44.260Z,1.90
2023-04-05T08:47:15.223Z,2.00
2023-04-05T08:49:45.969Z,2.10
2023-04-05T08:52:13.319Z,2.10
2023-04-05T08:54:42.865Z,2.23
2023-04-05T08:57:10.485Z,2.00
2023-04-05T08:59:40.805Z,1.88
2023-04-05T09:02:13.029Z,1.98
2023-04-05T09:04:44.903Z,1.75
2023-04-05T09:07:13.956Z,1.70
2023-04-05T09:09:43.259Z,1.85
2023-04-05T09:12:10.868Z,1.92
2023-04-05T09:14:39.528Z,1.90
2023-04-05T09:17:09.820Z,1.80
2023-04-05T09:19:37.379Z,1.85
2023-04-05T09:22:06.004Z,1.90
2023-04-05T09:24:39.413Z,2.10
2023-04-05T09:27:09.546Z,1.83
2023-04-05T09:29:37.133Z,1.88
2023-04-05T09:32:05.431Z,1.55
2023-04-05T09:34:38.624Z,1.83
2023-04-05T09:37:16.034Z,1.80
2023-04-05T09:39:44.029Z,1.90
2023-04-05T09:42:13.241Z,1.92
2023-04-05T09:44:52.385Z,1.80
2023-04-05T09:47:20.444Z,1.90
2023-04-05T09:49:50.410Z,1.58
2023-04-05T09:52:20.633Z,1.77
2023-04-05T09:54:47.929Z,1.60
2023-04-05T09:57:17.319Z,1.90
2023-04-05T09:59:44.984Z,1.80
2023-04-05T10:02:12.428Z,1.70
2023-04-05T10:04:41.321Z,1.60
2023-04-05T10:07:10.995Z,1.90
2023-04-05T10:09:38.691Z,1.80
2023-04-05T10:12:07.374Z,1.80
2023-04-05T10:14:34.679Z,1.55
2023-04-05T10:17:01.898Z,1.87
2023-04-05T10:19:47.245Z,1.77
2023-04-05T10:22:18.383Z,1.55
2023-04-05T10:25:06.200Z,1.55
2023-04-05T10:27:40.691Z,1.70
2023-04-05T10:30:09.249Z,1.50
2023-04-05T10:32:55.655Z,1.60
2023-04-05T10:35:32.398Z,1.60
2023-04-05T10:38:21.010Z,1.70
2023-04-05T10:40:48.943Z,1.42
2023-04-05T10:43:18.321Z,1.50
2023-04-05T10:45:48.879Z,1.70
2023-04-05T10:48:22.767Z,1.50
2023-04-05T10:50:50.167Z,1.92
2023-04-05T10:53:17.715Z,1.57
2023-04-05T10:55:46.102Z,1.65
2023-04-05T10:58:14.801Z,1.75
2023-04-05T11:00:42.614Z,1.50
2023-04-05T11:03:10.227Z,1.73
2023-04-05T11:05:38.168Z,1.70
2023-04-05T11:08:09.102Z,1.60
2023-04-05T11:10:37.637Z,1.50
2023-04-05T11:13:05.851Z,1.70
2023-04-05T11:18:08.851Z,1.38
2023-04-05T11:20:42.988Z,1.40
2023-04-05T11:23:11.362Z,1.45
2023-04-05T11:28:08.565Z,1.90
2023-04-05T11:31:03.563Z,1.60
2023-04-05T11:33:36.887Z,1.60
2023-04-05T11:36:04.274Z,1.67
2023-04-05T11:38:31.587Z,1.40
2023-04-05T11:41:18.129Z,1.20
2023-04-05T11:43:48.811Z,1.77
2023-04-05T11:46:16.207Z,1.52
2023-04-05T11:48:43.577Z,1.50
2023-04-05T11:51:11.460Z,1.57
2023-04-05T11:53:39.210Z,1.50
2023-04-05T11:56:15.769Z,1.60
2023-04-05T11:58:43.335Z,1.50
2023-04-05T12:01:10.552Z,1.67
2023-04-05T12:03:38.601Z,1.30
2023-04-05T12:08:40.493Z,1.48
2023-04-05T12:11:08.919Z,1.30
2023-04-05T12:13:36.700Z,1.40
2023-04-05T12:16:04.994Z,1.42
2023-04-05T12:18:34.101Z,1.30
2023-04-05T12:21:04.895Z,1.40
2023-04-05T12:23:33.968Z,1.33
2023-04-05T12:26:01.834Z,1.60
2023-04-05T12:28:49.305Z,1.23
2023-04-05T12:31:16.557Z,1.02
2023-04-05T12:33:44.229Z,1.43
2023-04-05T12:36:11.773Z,1.20
2023-04-05T12:38:39.054Z,1.45
2023-04-05T12:41:06.575Z,1.38
2023-04-05T12:43:43.836Z,1.60
2023-04-05T12:46:18.049Z,1.48
2023-04-05T12:48:51.260Z,1.55
2023-04-05T12:51:18.517Z,1.50
2023-04-05T12:53:48.685Z,1.25
2023-04-05T12:56:19.043Z,1.30
2023-04-05T12:58:52.282Z,1.50
2023-04-05T13:01:22.048Z,1.50
2023-04-05T13:03:51.159Z,1.58
2023-04-05T13:06:20.614Z,1.42
2023-04-05T13:08:47.861Z,1.40
2023-04-05T13:11:15.074Z,1.25
2023-04-05T13:13:42.353Z,1.40
2023-04-05T13:16:09.591Z,1.50
2023-04-05T13:18:36.904Z,1.60
2023-04-05T13:21:09.284Z,1.33
2023-04-05T13:23:37.445Z,1.45
2023-04-05T13:28:31.831Z,1.50
2023-04-05T13:30:59.166Z,1.30
2023-04-05T13:33:26.441Z,1.30
2023-04-05T13:35:53.720Z,1.20
2023-04-05T13:38:21.800Z,1.57
2023-04-05T13:40:48.984Z,1.23
2023-04-05T13:43:16.212Z,1.30
2023-04-05T13:45:43.630Z,1.43
2023-04-05T13:48:13.308Z,1.33
2023-04-05T13:50:40.795Z,1.20
2023-04-05T13:53:08.397Z,1.27
2023-04-05T13:55:35.711Z,1.50
2023-04-05T13:58:02.915Z,1.37
2023-04-05T14:00:30.274Z,1.20
2023-04-05T14:02:57.577Z,1.33
2023-04-05T14:05:24.956Z,1.30
2023-04-05T14:07:52.143Z,1.37
2023-04-05T14:10:21.645Z,1.30
2023-04-05T14:12:48.955Z,1.27
2023-04-05T14:15:16.227Z,1.30
2023-04-05T14:17:43.569Z,1.10
2023-04-05T14:20:11.788Z,1.10
2023-04-05T14:25:08.331Z,1.33
2023-04-05T14:27:41.178Z,1.30
2023-04-05T14:30:09.448Z,1.30
2023-04-05T14:32:36.849Z,1.20
2023-04-05T14:35:04.351Z,1.33
2023-04-05T14:37:31.629Z,1.45
2023-04-05T14:39:58.889Z,1.30
2023-04-05T14:42:34.127Z,1.30
2023-04-05T14:45:09.035Z,1.20
2023-04-05T14:47:36.286Z,1.20
2023-04-05T14:50:03.690Z,1.30
2023-04-05T14:52:31.050Z,1.50
2023-04-05T14:54:58.292Z,1.20
2023-04-05T14:57:25.592Z,1.30
2023-04-05T14:59:55.678Z,1.20
2023-04-05T15:02:23.024Z,1.40
2023-04-05T15:04:50.384Z,1.20
2023-04-05T15:07:17.650Z,1.40
2023-04-05T15:09:44.913Z,1.20
2023-04-05T15:12:12.159Z,1.20
2023-04-05T15:14:39.388Z,1.20
2023-04-05T15:17:06.688Z,1.27
2023-04-05T15:19:35.497Z,1.30
2023-04-05T15:22:02.848Z,1.30
2023-04-05T15:24:30.282Z,1.10
2023-04-05T15:27:02.132Z,1.10
2023-04-05T15:29:33.183Z,1.08
2023-04-05T15:32:00.695Z,1.20
2023-04-05T15:34:28.782Z,1.20
2023-04-05T15:36:56.320Z,1.30
2023-04-05T15:39:23.885Z,1.30
2023-04-05T15:41:51.471Z,1.10
2023-04-05T15:44:18.767Z,1.40
2023-04-05T15:46:46.102Z,1.10
2023-04-05T15:49:15.379Z,1.30
2023-04-05T15:51:43.496Z,1.27
2023-04-05T15:54:10.818Z,1.10
2023-04-05T15:56:38.050Z,1.10
2023-04-05T15:59:05.548Z,1.13
2023-04-05T16:01:33.058Z,1.35
2023-04-05T16:04:00.614Z,1.13
2023-04-05T16:06:29.860Z,1.15
2023-04-05T16:08:57.172Z,1.40
2023-04-05T16:11:24.474Z,1.20
2023-04-05T16:13:51.831Z,1.20
2023-04-05T16:16:29.905Z,1.20
2023-04-05T16:19:07.390Z,1.30
2023-04-05T16:21:34.660Z,1.30
2023-04-05T16:24:03.969Z,1.10
2023-04-05T16:26:31.383Z,1.17
2023-04-05T16:28:58.929Z,1.30
2023-04-05T16:31:26.221Z,1.20
2023-04-05T16:33:53.902Z,1.20
2023-04-05T16:36:21.583Z,1.35
2023-04-05T16:38:48.931Z,1.08
2023-04-05T16:41:16.284Z,1.17
2023-04-05T16:43:43.681Z,1.30
2023-04-05T16:46:11.227Z,1.20
2023-04-05T16:48:38.608Z,1.23
2023-04-05T16:51:07.302Z,1.10
2023-04-05T16:53:34.620Z,1.20
2023-04-05T16:56:01.900Z,1.10
2023-04-05T16:58:29.725Z,1.27
2023-04-05T17:00:58.895Z,1.20
2023-04-05T17:03:26.531Z,1.10
2023-04-05T17:05:53.995Z,1.30
2023-04-05T17:08:21.236Z,1.13
2023-04-05T17:10:48.528Z,1.30
2023-04-05T17:13:16.031Z,1.20
2023-04-05T17:15:43.527Z,1.40
2023-04-05T17:18:12.296Z,1.20
2023-04-05T17:20:39.699Z,1.23
2023-04-05T17:23:06.949Z,1.23
2023-04-05T17:25:34.334Z,1.00
2023-04-05T17:28:03.172Z,1.30
2023-04-05T17:30:31.763Z,1.20
2023-04-05T17:32:59.235Z,1.40
2023-04-05T17:35:26.531Z,1.33
2023-04-05T17:37:53.825Z,1.27
2023-04-05T17:40:21.313Z,1.13
2023-04-05T17:42:48.595Z,1.17
2023-04-05T17:45:16.067Z,1.20
2023-04-05T17:47:43.415Z,1.20
2023-04-05T17:50:11.033Z,1.17
2023-04-05T17:52:38.261Z,1.02
2023-04-05T17:55:06.000Z,1.10
2023-04-05T17:57:33.241Z,1.00
2023-04-05T18:00:00.672Z,1.13
2023-04-05T18:02:28.446Z,1.10
2023-04-05T18:04:55.871Z,1.10
2023-04-05T18:07:23.140Z,1.10
2023-04-05T18:09:50.706Z,1.10
2023-04-05T18:12:18.200Z,1.27
2023-04-05T18:14:45.645Z,1.23
2023-04-05T18:17:12.854Z,1.20
2023-04-05T18:19:40.104Z,1.00
2023-04-05T18:22:07.382Z,0.90
2023-04-05T18:24:34.775Z,1.30
2023-04-05T18:27:02.155Z,1.10
2023-04-05T18:29:30.596Z,1.17
2023-04-05T18:31:58.212Z,1.13
2023-04-05T18:34:25.726Z,1.20
2023-04-05T18:36:53.048Z,1.00
2023-04-05T18:39:20.977Z,1.17
2023-04-05T18:41:48.230Z,1.30
2023-04-05T18:44:15.611Z,1.40
2023-04-05T18:46:44.170Z,1.30
2023-04-05T18:49:11.639Z,1.27
2023-04-05T18:51:38.888Z,1.30
2023-04-05T18:54:06.253Z,1.17
2023-04-05T18:56:33.556Z,1.20
2023-04-05T18:59:00.935Z,1.20
2023-04-05T19:01:28.285Z,1.08
2023-04-05T19:03:55.568Z,1.20
2023-04-05T19:06:22.934Z,0.93
2023-04-05T19:08:50.317Z,1.10
2023-04-05T19:11:18.742Z,1.20
2023-04-05T19:13:46.310Z,1.30
2023-04-05T19:16:13.680Z,1.10
2023-04-05T19:18:40.946Z,1.10
2023-04-05T19:21:08.790Z,1.20
2023-04-05T19:23:36.807Z,1.27
2023-04-05T19:26:04.069Z,1.17
2023-04-05T19:28:31.369Z,1.10
2023-04-05T19:30:58.652Z,1.30
2023-04-05T19:33:26.277Z,1.20
2023-04-05T19:35:53.830Z,1.25
2023-04-05T19:38:24.175Z,1.10
2023-04-05T19:40:51.428Z,1.20
2023-04-05T19:43:21.329Z,1.33
2023-04-05T19:45:50.543Z,1.30
2023-04-05T19:48:29.973Z,1.10
2023-04-05T19:50:57.814Z,1.17
2023-04-05T19:53:43.816Z,1.10
2023-04-05T19:56:12.396Z,1.40
2023-04-05T19:58:39.834Z,1.15
2023-04-05T20:01:07.727Z,1.00
2023-04-05T20:03:38.124Z,1.25
2023-04-05T20:06:18.312Z,1.17
2023-04-05T20:08:46.221Z,1.27
2023-04-05T20:11:17.264Z,1.13
2023-04-05T20:13:51.913Z,1.30
2023-04-05T20:16:19.442Z,1.35
2023-04-05T20:18:47.212Z,1.30
2023-04-05T20:21:15.054Z,1.30
2023-04-05T20:23:43.495Z,1.35
2023-04-05T20:26:15.434Z,1.30
2023-04-05T20:28:44.208Z,1.48
2023-04-05T20:31:22.836Z,1.30
2023-04-05T20:33:50.149Z,1.35
2023-04-05T20:36:18.507Z,1.30
2023-04-05T20:38:46.677Z,1.30
2023-04-05T20:41:14.380Z,1.20
2023-04-05T20:43:41.996Z,1.27
2023-04-05T20:46:09.703Z,1.13
2023-04-05T20:48:37.534Z,1.20
2023-04-05T20:51:05.865Z,1.30
2023-04-05T20:53:33.356Z,1.30
2023-04-05T20:56:00.731Z,1.45
2023-04-05T20:58:28.132Z,1.20
2023-04-05T21:00:55.911Z,1.60
2023-04-05T21:03:23.332Z,1.20
2023-04-05T21:05:51.243Z,1.30
2023-04-05T21:08:18.645Z,1.20
2023-04-05T21:10:45.971Z,1.42
2023-04-05T21:13:13.171Z,1.30
2023-04-05T21:15:40.487Z,1.35
2023-04-05T21:18:08.461Z,1.50
2023-04-05T21:20:35.935Z,1.30
2023-04-05T21:23:04.179Z,1.40
2023-04-05T21:25:32.225Z,1.40
2023-04-05T21:28:00.326Z,1.40
2023-04-05T21:32:54.862Z,1.30
2023-04-05T21:35:24.830Z,1.50
2023-04-05T21:37:52.118Z,1.20
2023-04-05T21:40:21.613Z,1.20
2023-04-05T21:42:48.865Z,1.40
2023-04-05T21:45:16.130Z,1.30
2023-04-05T21:47:43.514Z,1.37
2023-04-05T21:50:11.009Z,1.50
2023-04-05T21:52:38.324Z,1.35
2023-04-05T21:55:05.681Z,1.60
2023-04-05T21:57:33.788Z,1.37
2023-04-05T22:00:01.476Z,1.60
2023-04-05T22:02:28.920Z,1.45
2023-04-05T22:04:56.236Z,1.58
2023-04-05T22:07:23.482Z,1.60
2023-04-05T22:09:50.853Z,1.43
2023-04-05T22:12:18.052Z,1.30
2023-04-05T22:14:45.277Z,1.40
2023-04-05T22:17:12.501Z,1.40
2023-04-05T22:19:43.734Z,1.80
2023-04-05T22:22:15.009Z,1.80
2023-04-05T22:24:42.648Z,1.70
2023-04-05T22:27:10.020Z,1.40
2023-04-05T22:29:37.383Z,1.60
2023-04-05T22:32:04.988Z,1.60
2023-04-05T22:34:32.298Z,1.65
2023-04-05T22:37:00.024Z,1.48
2023-04-05T22:39:27.837Z,1.60
2023-04-05T22:41:55.223Z,1.60
2023-04-05T22:44:24.473Z,1.60
2023-04-05T22:46:51.930Z,1.50
2023-04-05T22:49:19.158Z,1.52
2023-04-05T22:51:46.468Z,1.65
2023-04-05T22:54:13.728Z,1.57
2023-04-05T22:56:43.266Z,1.70
2023-04-05T22:59:12.977Z,2.00
2023-04-05T23:01:40.537Z,1.80
2023-04-05T23:04:08.003Z,1.92
2023-04-05T23:06:35.651Z,2.15
2023-04-05T23:09:04.369Z,1.73
2023-04-05T23:11:31.688Z,1.75
2023-04-05T23:13:58.908Z,1.80
2023-04-05T23:16:26.290Z,1.83
2023-04-05T23:18:53.541Z,1.60
2023-04-05T23:21:20.973Z,1.80
2023-04-05T23:23:48.200Z,1.83
2023-04-05T23:26:15.656Z,1.90
2023-04-05T23:28:42.893Z,1.77
2023-04-05T23:31:10.273Z,2.07
2023-04-05T23:33:37.584Z,1.90
2023-04-05T23:36:05.015Z,2.00
2023-04-05T23:38:32.307Z,1.92
2023-04-05T23:40:59.548Z,1.90
2023-04-05T23:43:26.782Z,2.00
2023-04-05T23:45:54.020Z,2.00
2023-04-05T23:48:21.246Z,2.00
2023-04-05T23:50:48.566Z,2.20
2023-04-05T23:53:15.835Z,1.93
2023-04-05T23:55:43.047Z,1.80
2023-04-05T23:58:10.377Z,2.03
